• Join FlightAware (Why Join?)
  • Login
  • US Flag 
05:37AM EDT


 

Airport Tracker/Info


-or-


 

Live Flight TrackerFlight Track Log ✈ N119BJ ✈ 23-Aug-2013 ✈ KHPN - KACK

Flight Track Log - Related Links

Times and Time Zones

All times are in EDT time to prevent confusion due to time zone crossing. See the N119BJ flight status page for this flight to view local times or setup timezone preferences in your user account.

Time Position Orientation Groundspeed Altitude Reporting Facility
EDT Latitude Longitude Course Direction KTS MPH feet Rate Location/Type
12:30PM 41.1167 -72.7167 85° East 151 174 5,600  Level New York TRACON
12:31PM 41.1167 -72.6500 90° East 152 175 5,600  Level New York TRACON
12:32PM 41.1167 -72.6000 90° East 149 171 5,600  Level New York TRACON
12:33PM 41.1167 -72.5500 90° East 153 176 5,600  Level New York TRACON
12:34PM 41.1333 -72.4833 72° East 153 176 5,600 -60 Level New York TRACON
12:36PM 41.1533 -72.2872 85° East  Level Estimated
12:36PM 41.1311 -72.4069 92° East 153 176 5,500  Level Boston Center
12:37PM 41.1353 -72.3353 86° East 153 176 5,500 -60 Level Boston Center
12:38PM 41.1394 -72.2719 85° East 150 173 5,400 -60 Descending Boston Center
12:39PM 41.1414 -72.2169 87° East 147 169 5,400  Level Boston Center
12:40PM 41.1456 -72.1644 84° East 147 169 5,500  Climbing Boston Center
12:41PM 41.1494 -72.1039 85° East 153 176 5,500  Level Boston Center
12:42PM 41.1514 -72.0514 87° East 149 171 5,500  Level Boston Center
12:43PM 41.1575 -71.9881 83° East 154 177 5,500  Level Boston Center
12:44PM 41.1572 -71.9356 90° East 153 176 5,500 -60 Level Boston Center
12:46PM 41.1611 -71.8750 85° East 150 173 5,400  Descending Boston Center
12:47PM 41.1650 -71.8169 85° East 157 181 5,500  Climbing Boston Center
12:48PM 41.1686 -71.7508 86° East 166 191 5,400  Descending Boston Center
12:49PM 41.1725 -71.7039 84° East 145 167 5,500  Climbing Boston Center
12:50PM 41.1764 -71.6486 85° East 151 174 5,500  Level Boston Center
12:51PM 41.1758 -71.5908 91° East 156 180 5,500  Level Boston Center
12:52PM 41.1819 -71.5411 81° East 159 183 5,500  Level Boston Center
12:52PM 41.1836 -71.4914 87° East 152 175 5,500  Level Boston Center
12:53PM 41.1872 -71.4278 86° East 154 177 5,500  Level Boston Center
12:55PM 41.1886 -71.3672 88° East 154 177 5,500  Level Boston Center
12:55PM 41.1922 -71.3147 85° East 152 175 5,500  Level Boston Center
12:56PM 41.1958 -71.2567 85° East 154 177 5,500  Level Boston Center
12:58PM 41.1973 -71.1921 88° East  Level FlightAware Approximate
01:05PM 41.1089 -70.7848 76° East  Level FlightAware Approximate
01:06PM 41.1201 -70.7232 76° East  Level FlightAware Approximate
01:07PM 41.1312 -70.6615 76° East  Level FlightAware Approximate
01:08PM 41.1471 -70.6018 69° East  Level FlightAware Approximate
01:09PM 41.1641 -70.5424 69° East  Level FlightAware Approximate
01:10PM 41.1705 -70.4802 76° East  Level FlightAware Approximate
01:11PM 41.1823 -70.4187 76° East  Level FlightAware Approximate
01:12PM 41.1940 -70.3572 76° East  Level FlightAware Approximate
01:13PM 41.2057 -70.2957 76° East  Level FlightAware Approximate
01:14PM 41.2174 -70.2341 76° East  Level FlightAware Approximate
01:15PM 41.2291 -70.1725 76° East  Level FlightAware Approximate
01:16PM 41.2399 -70.1106 77° East  Level FlightAware Approximate
01:17PM 41.2500 -70.0500 77° East  Level FlightAware Approximate
01:18PM 41.2531 -70.0603 77° East  Level Estimated
01:19PM 41.2531 -70.0603 77° East  Level Estimated
01:20PM 41.2531 -70.0603 77° East  Level Estimated
01:21PM 41.2531 -70.0603 77° East  Level Estimated
01:22PM 41.2531 -70.0603 77° East  Level Estimated
01:23PM 41.2531 -70.0603 77° East  Level Estimated
01:24PM 41.2531 -70.0603 77° East  Level Estimated
01:25PM 41.2531 -70.0603 77° East  Level Estimated
01:26PM 41.2531 -70.0603 77° East  Level Estimated
01:27PM 41.2531 -70.0603 77° East  Level Estimated
01:28PM 41.2531 -70.0603 77° East  Level Estimated
01:29PM 41.2531 -70.0603 77° East  Level Estimated
01:30PM 41.2531 -70.0603 77° East  Level Estimated
01:31PM 41.2531 -70.0603 77° East  Level Estimated
01:32PM 41.2531 -70.0603 77° East  Level Estimated
01:33PM 41.2531 -70.0603 77° East  Level Estimated
01:34PM 41.2531 -70.0603 77° East  Level Estimated
01:35PM 41.2531 -70.0603 77° East  Level Estimated
01:36PM 41.2531 -70.0603 77° East  Level Estimated
01:37PM 41.2531 -70.0603 77° East  Level Estimated